Time;durP1;ratioP1;P1;durP2;ratioP2;P2;SDS_P1;SDS_P2;PMS_P1;PMS_P2;Temp;Humidity;BMP_temperature;BMP_pressure;BME280_temperature;BME280_humidity;BME280_pressure;Samples;Min_cycle;Max_cycle;Signal;HPM_P1;HPM_P2
2023/04/10 00:02:17;;;;;;;10.20;9.20;;;;;;;10.25;100.00;100389.88;106153;1256;72118;-49
2023/04/10 00:04:54;;;;;;;10.10;9.10;;;;;;;10.23;100.00;100387.06;105826;1257;67384;-49
2023/04/10 00:07:26;;;;;;;9.10;8.40;;;;;;;10.21;100.00;100386.41;109242;1253;72278;-51
2023/04/10 00:09:54;;;;;;;10.30;9.40;;;;;;;10.19;100.00;100384.73;106283;1254;59824;-51
2023/04/10 00:12:25;;;;;;;10.20;9.10;;;;;;;10.17;100.00;100387.28;105676;1254;63031;-50
2023/04/10 00:14:58;;;;;;;;;;;;;;;10.15;100.00;100389.11;105615;1252;73201;-51
2023/04/10 00:17:27;;;;;;;10.40;9.40;;;;;;;10.14;100.00;100384.33;105544;1254;66932;-50
2023/04/10 00:19:55;;;;;;;9.80;9.00;;;;;;;10.13;100.00;100386.31;109118;1252;72094;-51
2023/04/10 00:22:27;;;;;;;11.30;9.70;;;;;;;10.12;100.00;100388.69;109175;1252;59785;-50
2023/04/10 00:24:56;;;;;;;11.40;10.30;;;;;;;10.11;100.00;100385.70;109055;1252;60362;-49
2023/04/10 00:27:25;;;;;;;10.30;9.40;;;;;;;10.09;100.00;100386.31;109107;1254;72569;-52
2023/04/10 00:29:54;;;;;;;10.90;10.00;;;;;;;10.08;100.00;100383.85;109215;1252;66244;-50
2023/04/10 00:32:24;;;;;;;10.20;9.30;;;;;;;10.07;100.00;100389.61;109197;1253;70692;-49
2023/04/10 00:34:57;;;;;;;11.80;10.10;;;;;;;10.05;100.00;100386.79;109231;1254;62253;-51
2023/04/10 00:37:26;;;;;;;10.50;9.50;;;;;;;10.05;100.00;100383.39;109207;1254;58915;-50
2023/04/10 00:39:54;;;;;;;10.40;9.60;;;;;;;10.05;100.00;100380.52;109109;1252;73168;-51
2023/04/10 00:42:23;;;;;;;11.40;10.20;;;;;;;10.06;100.00;100383.73;109046;1252;66930;-49
2023/04/10 00:44:50;;;;;;;10.70;9.80;;;;;;;10.07;100.00;100384.41;109197;1256;70659;-51
2023/04/10 00:47:26;;;;;;;10.70;9.90;;;;;;;10.08;100.00;100384.19;109197;1256;61182;-50
2023/04/10 00:49:55;;;;;;;11.30;10.00;;;;;;;10.08;100.00;100382.95;109035;1254;58241;-52
2023/04/10 00:52:23;;;;;;;10.00;9.20;;;;;;;10.07;100.00;100380.65;109203;1253;72428;-49
2023/04/10 00:54:53;;;;;;;9.30;8.50;;;;;;;10.06;100.00;100379.08;109191;1254;66073;-50
2023/04/10 00:57:21;;;;;;;11.00;10.10;;;;;;;10.05;100.00;100377.84;105791;1258;72147;-49
2023/04/10 00:59:55;;;;;;;11.00;10.00;;;;;;;10.05;100.00;100378.20;106594;1256;61963;-51
2023/04/10 01:02:25;;;;;;;10.70;9.70;;;;;;;10.03;100.00;100378.64;106618;1254;60281;-51
2023/04/10 01:04:54;;;;;;;10.20;9.40;;;;;;;10.03;100.00;100373.45;105811;1253;72936;-50
2023/04/10 01:07:41;;;;;;;11.70;10.60;;;;;;;10.03;100.00;100372.91;106648;1254;66665;-49
2023/04/10 01:10:24;;;;;;;9.80;9.00;;;;;;;10.02;100.00;100374.73;106195;1257;71916;-52
2023/04/10 01:13:24;;;;;;;10.30;8.80;;;;;;;10.00;100.00;100373.53;106235;1256;62325;-53
2023/04/10 01:16:09;;;;;;;10.10;9.10;;;;;;;10.00;100.00;100374.45;105867;1253;59657;-48
2023/04/10 01:18:52;;;;;;;8.90;8.10;;;;;;;10.00;100.00;100378.38;106633;1256;73289;-52
2023/04/10 01:21:21;;;;;;;9.70;8.80;;;;;;;10.01;100.00;100376.56;105435;1256;66327;-50
2023/04/10 01:24:17;;;;;;;8.60;7.60;;;;;;;10.02;100.00;100375.64;105411;1258;71783;-50
2023/04/10 01:27:10;;;;;;;9.80;8.20;;;;;;;10.02;100.00;100379.39;105441;1257;62385;-50
2023/04/10 01:29:41;;;;;;;9.10;8.40;;;;;;;10.02;100.00;100380.30;105919;1254;60044;-52
2023/04/10 01:32:13;;;;;;;8.60;8.00;;;;;;;10.02;100.00;100378.31;105883;1254;73185;-49
2023/04/10 01:34:49;;;;;;;9.60;8.60;;;;;;;10.03;100.00;100375.43;105775;1254;66315;-49
2023/04/10 01:37:23;;;;;;;13.20;8.90;;;;;;;10.04;100.00;100380.73;105709;1254;73155;-53
2023/04/10 01:40:02;;;;;;;10.00;9.20;;;;;;;10.03;100.00;100373.45;105718;1256;61047;-53
2023/04/10 01:42:31;;;;;;;10.40;9.50;;;;;;;10.01;100.00;100375.14;105647;1253;60285;-50
2023/04/10 01:45:00;;;;;;;11.10;9.80;;;;;;;10.00;100.00;100375.35;106898;1257;71180;-50
2023/04/10 01:47:29;;;;;;;9.50;8.60;;;;;;;10.00;100.00;100374.27;105990;1256;67317;-50
2023/04/10 01:49:57;;;;;;;10.80;9.80;;;;;;;9.98;100.00;100374.33;105525;1260;71601;-51
2023/04/10 01:52:25;;;;;;;12.20;11.00;;;;;;;9.96;100.00;100370.63;105372;1258;62094;-53
2023/04/10 01:55:05;;;;;;;10.80;9.40;;;;;;;9.94;100.00;100377.54;105361;1253;59835;-50
2023/04/10 01:57:47;;;;;;;11.30;10.30;;;;;;;9.93;100.00;100374.54;106102;1254;72337;-53
2023/04/10 02:00:19;;;;;;;11.90;10.80;;;;;;;9.91;100.00;100372.29;105861;1256;67368;-53
2023/04/10 02:02:48;;;;;;;11.00;9.60;;;;;;;9.90;100.00;100371.77;106249;1254;71780;-51
2023/04/10 02:05:16;;;;;;;10.30;9.40;;;;;;;9.88;100.00;100372.34;106034;1256;60675;-51
2023/04/10 02:08:10;;;;;;;11.60;10.40;;;;;;;9.87;100.00;100374.52;105770;1253;61277;-53
2023/04/10 02:10:43;;;;;;;14.40;11.10;;;;;;;9.85;100.00;100380.17;105962;1251;73891;-50
2023/04/10 02:13:11;;;;;;;12.40;11.10;;;;;;;9.84;100.00;100378.79;105808;1258;66086;-50
2023/04/10 02:15:41;;;;;;;12.00;10.80;;;;;;;9.83;100.00;100376.29;105482;1257;72598;-52
2023/04/10 02:18:10;;;;;;;10.80;9.70;;;;;;;9.83;100.00;100376.30;105916;1254;61559;-52
2023/04/10 02:20:38;;;;;;;13.30;11.60;;;;;;;9.85;100.00;100376.44;105707;1254;60503;-51
2023/04/10 02:23:08;;;;;;;16.70;12.00;;;;;;;9.85;100.00;100374.29;105438;1254;72573;-53
2023/04/10 02:25:37;;;;;;;14.10;11.60;;;;;;;9.85;100.00;100378.57;105418;1254;64938;-51
2023/04/10 02:28:06;;;;;;;13.80;11.80;;;;;;;9.86;100.00;100376.58;105465;1255;71928;-51
2023/04/10 02:30:34;;;;;;;17.20;13.30;;;;;;;9.86;100.00;100376.73;105715;1257;61352;-49
2023/04/10 02:33:03;;;;;;;14.50;12.00;;;;;;;9.86;100.00;100378.88;107113;1254;60492;-49
2023/04/10 02:35:32;;;;;;;14.00;12.60;;;;;;;9.87;100.00;100380.81;105673;1254;74137;-52
2023/04/10 02:38:03;;;;;;;13.80;11.90;;;;;;;9.87;100.00;100380.48;106497;1256;67974;-52
2023/04/10 02:40:31;;;;;;;14.20;12.00;;;;;;;9.86;100.00;100383.73;106066;1254;73309;-53
2023/04/10 02:43:09;;;;;;;15.40;12.10;;;;;;;9.84;100.00;100385.77;106682;1252;60403;-50
2023/04/10 02:45:37;;;;;;;17.50;13.40;;;;;;;9.85;100.00;100386.81;106204;1254;60924;-52
2023/04/10 02:48:11;;;;;;;14.30;12.80;;;;;;;9.85;100.00;100383.77;105548;1254;72570;-53
2023/04/10 02:50:44;;;;;;;15.40;13.80;;;;;;;9.83;100.00;100389.56;105793;1254;67145;-53
2023/04/10 02:53:14;;;;;;;16.90;13.80;;;;;;;9.81;100.00;100392.87;105581;1259;70679;-50
2023/04/10 02:55:42;;;;;;;16.80;13.50;;;;;;;9.79;100.00;100388.80;109167;1252;61385;-54
2023/04/10 02:58:10;;;;;;;17.20;15.30;;;;;;;9.79;100.00;100388.47;106604;1254;60808;-52
2023/04/10 03:00:47;;;;;;;17.00;15.10;;;;;;;9.76;100.00;100386.97;105692;1256;73496;-54
2023/04/10 03:03:20;;;;;;;17.40;14.60;;;;;;;9.75;100.00;100388.26;105662;1256;66474;-53
2023/04/10 03:05:52;;;;;;;16.80;14.90;;;;;;;9.75;100.00;100389.86;105394;1254;73193;-53
2023/04/10 03:08:25;;;;;;;19.90;15.60;;;;;;;9.74;100.00;100392.02;107018;1256;61275;-53
2023/04/10 03:10:53;;;;;;;19.00;15.70;;;;;;;9.76;100.00;100389.84;105531;1256;60513;-51
2023/04/10 03:13:23;;;;;;;22.20;19.20;;;;;;;9.78;100.00;100395.68;105646;1255;74475;-49
2023/04/10 03:15:51;;;;;;;18.80;16.90;;;;;;;9.78;100.00;100389.20;109157;1254;68698;-54
2023/04/10 03:18:19;;;;;;;22.80;17.40;;;;;;;9.79;100.00;100395.63;107325;1254;72965;-52
2023/04/10 03:20:55;;;;;;;27.30;18.50;;;;;;;9.76;100.00;100398.23;105751;1256;62483;-52
2023/04/10 03:23:24;;;;;;;18.80;16.40;;;;;;;9.75;100.00;100395.77;109166;1254;60515;-54
2023/04/10 03:25:53;;;;;;;20.60;16.40;;;;;;;9.75;100.00;100394.16;109102;1256;72683;-54
2023/04/10 03:28:24;;;;;;;21.30;17.40;;;;;;;9.76;100.00;100399.15;109182;1253;66646;-54
2023/04/10 03:30:52;;;;;;;19.20;16.90;;;;;;;9.77;100.00;100400.70;109167;1252;73862;-54
2023/04/10 03:33:23;;;;;;;21.20;18.20;;;;;;;9.77;100.00;100394.98;106192;1254;60864;-52
2023/04/10 03:35:52;;;;;;;17.00;15.20;;;;;;;9.78;100.00;100398.52;105659;1257;60539;-52
2023/04/10 03:38:21;;;;;;;17.20;15.40;;;;;;;9.79;100.00;100398.85;109182;1253;73135;-54
2023/04/10 03:40:50;;;;;;;17.80;15.70;;;;;;;9.78;100.00;100398.89;107022;1256;65375;-51
2023/04/10 03:43:19;;;;;;;16.30;14.60;;;;;;;9.78;100.00;100403.71;109147;1254;72134;-54
2023/04/10 03:45:47;;;;;;;18.30;15.50;;;;;;;9.80;100.00;100405.09;109068;1254;60345;-54
2023/04/10 03:48:16;;;;;;;17.40;15.20;;;;;;;9.80;100.00;100403.64;107983;1257;59788;-53
2023/04/10 03:50:46;;;;;;;20.00;16.90;;;;;;;9.80;100.00;100409.91;105641;1256;73861;-52
2023/04/10 03:53:16;;;;;;;20.10;17.60;;;;;;;9.81;100.00;100409.18;109141;1252;65951;-52
2023/04/10 03:55:44;;;;;;;21.00;15.40;;;;;;;9.82;100.00;100408.77;109029;1254;71838;-52
2023/04/10 03:58:13;;;;;;;17.50;15.50;;;;;;;9.83;100.00;100410.20;108935;1258;61489;-52
2023/04/10 04:00:43;;;;;;;17.10;14.90;;;;;;;9.83;100.00;100415.02;108977;1253;59059;-52
2023/04/10 04:03:17;;;;;;;20.40;17.70;;;;;;;9.83;100.00;100415.92;109138;1254;73055;-52
2023/04/10 04:06:11;;;;;;;18.10;16.20;;;;;;;9.83;100.00;100424.87;109063;1254;67815;-52
2023/04/10 04:08:45;;;;;;;21.60;16.60;;;;;;;9.83;100.00;100420.40;105455;1254;71490;-52
2023/04/10 04:11:20;;;;;;;16.60;14.70;;;;;;;9.85;100.00;100423.93;105570;1256;61409;-52
2023/04/10 04:14:08;;;;;;;17.20;15.40;;;;;;;9.86;100.00;100428.70;105816;1257;60518;-53
2023/04/10 04:17:00;;;;;;;16.20;14.60;;;;;;;9.87;100.00;100429.03;105338;1253;72375;-52
2023/04/10 04:19:35;;;;;;;18.50;14.40;;;;;;;9.86;100.00;100429.08;105707;1257;67522;-52
2023/04/10 04:22:23;;;;;;;24.40;17.80;;;;;;;9.85;100.00;100431.44;109141;1252;71993;-53
2023/04/10 04:25:10;;;;;;;20.20;16.00;;;;;;;9.85;100.00;100436.28;105393;1259;61762;-51
2023/04/10 04:28:02;;;;;;;18.20;16.30;;;;;;;9.86;100.00;100439.30;105220;1255;60378;-52
2023/04/10 04:31:00;;;;;;;20.00;17.80;;;;;;;9.86;100.00;100438.02;105352;1263;73908;-53
2023/04/10 04:33:51;;;;;;;23.10;17.50;;;;;;;9.86;100.00;100438.20;104439;1257;67737;-52
2023/04/10 04:36:27;;;;;;;19.90;16.70;;;;;;;9.85;100.00;100439.17;107366;1256;72870;-53
2023/04/10 04:39:04;;;;;;;23.70;19.30;;;;;;;9.83;100.00;100441.73;104818;1256;62408;-54
2023/04/10 04:41:52;;;;;;;24.80;20.30;;;;;;;9.83;100.00;100443.52;105087;1256;60666;-53
2023/04/10 04:44:40;;;;;;;22.60;19.80;;;;;;;9.82;100.00;100443.54;105028;1257;74353;-53
2023/04/10 04:47:18;;;;;;;26.20;19.90;;;;;;;9.80;100.00;100444.52;105045;1257;67281;-53
2023/04/10 04:49:52;;;;;;;25.70;21.20;;;;;;;9.77;100.00;100442.85;105155;1256;71188;-53
2023/04/10 04:52:46;;;;;;;25.30;21.50;;;;;;;9.75;100.00;100451.50;106548;1256;62165;-53
2023/04/10 04:55:27;;;;;;;21.40;18.30;;;;;;;9.75;100.00;100450.07;105494;1259;61059;-53
2023/04/10 04:58:23;;;;;;;23.20;19.50;;;;;;;9.76;100.00;100454.17;105253;1265;74909;-50
2023/04/10 05:01:11;;;;;;;23.10;18.20;;;;;;;9.76;100.00;100457.59;105761;1258;65920;-53
2023/04/10 05:03:55;;;;;;;27.80;19.10;;;;;;;9.76;100.00;100461.34;105781;1259;71610;-52
2023/04/10 05:06:53;;;;;;;22.60;18.30;;;;;;;9.79;100.00;100467.13;105370;1259;60824;-52
2023/04/10 05:09:42;;;;;;;21.90;18.00;;;;;;;9.81;100.00;100471.91;105621;1255;61067;-51
2023/04/10 05:12:18;;;;;;;27.30;19.10;;;;;;;9.82;100.00;100474.92;105542;1252;74509;-50
2023/04/10 05:14:46;;;;;;;22.90;16.90;;;;;;;9.82;100.00;100475.29;108737;1254;68304;-52
2023/04/10 05:17:34;;;;;;;26.40;18.90;;;;;;;9.80;100.00;100481.24;109075;1254;72975;-52
2023/04/10 05:20:12;;;;;;;25.30;18.70;;;;;;;9.79;100.00;100480.39;108930;1254;61271;-52
2023/04/10 05:22:49;;;;;;;25.20;16.90;;;;;;;9.80;100.00;100478.58;108988;1260;59836;-52
2023/04/10 05:25:37;;;;;;;20.70;16.00;;;;;;;9.80;100.00;100482.52;109187;1254;73357;-52
2023/04/10 05:28:33;;;;;;;21.50;16.60;;;;;;;9.79;100.00;100480.21;107079;1259;67184;-52
2023/04/10 05:31:27;;;;;;;27.20;16.50;;;;;;;9.80;100.00;100480.92;105495;1266;73152;-51
2023/04/10 05:34:17;;;;;;;24.40;17.30;;;;;;;9.80;100.00;100483.06;105949;1257;61339;-53
2023/04/10 05:36:59;;;;;;;21.20;16.90;;;;;;;9.80;100.00;100481.83;106128;1253;60513;-52
2023/04/10 05:39:40;;;;;;;25.40;14.60;;;;;;;9.79;100.00;100482.02;105674;1256;73429;-53
2023/04/10 05:42:18;;;;;;;22.60;15.40;;;;;;;9.78;100.00;100478.80;105974;1256;67374;-52
2023/04/10 05:44:54;;;;;;;23.70;14.50;;;;;;;9.78;100.00;100483.12;105696;1254;71449;-51
2023/04/10 05:47:34;;;;;;;19.50;14.70;;;;;;;9.76;100.00;100482.86;106408;1256;62348;-51
2023/04/10 05:50:37;;;;;;;22.70;14.70;;;;;;;9.75;100.00;100493.09;104989;1265;60383;-51
2023/04/10 05:53:17;;;;;;;25.80;14.90;;;;;;;9.75;100.00;100491.85;105419;1259;73762;-52
2023/04/10 05:56:13;;;;;;;21.90;13.50;;;;;;;9.77;100.00;100498.22;105854;1255;66609;-52
2023/04/10 05:59:00;;;;;;;18.00;13.80;;;;;;;9.81;100.00;100497.72;105674;1254;70640;-51
2023/04/10 06:01:48;;;;;;;15.70;13.90;;;;;;;9.83;100.00;100499.98;105693;1258;60877;-52
2023/04/10 06:04:22;;;;;;;19.80;15.10;;;;;;;9.85;100.00;100501.17;105514;1254;60437;-53
2023/04/10 06:06:52;;;;;;;19.10;13.60;;;;;;;9.86;100.00;100501.14;105835;1257;73140;-53
2023/04/10 06:09:20;;;;;;;23.20;14.40;;;;;;;9.86;100.00;100503.67;106101;1256;65998;-52
2023/04/10 06:11:49;;;;;;;15.50;13.90;;;;;;;9.84;100.00;100504.44;105628;1252;72859;-50
2023/04/10 06:14:18;;;;;;;20.80;14.10;;;;;;;9.84;100.00;100504.07;108005;1255;62257;-51
2023/04/10 06:16:46;;;;;;;20.50;13.40;;;;;;;9.85;100.00;100510.15;106029;1254;60517;-51
2023/04/10 06:19:15;;;;;;;19.70;15.70;;;;;;;9.86;100.00;100514.95;105586;1255;73127;-49
2023/04/10 06:21:43;;;;;;;24.20;14.90;;;;;;;9.85;100.00;100515.73;105529;1252;65311;-51
2023/04/10 06:24:14;;;;;;;23.50;16.20;;;;;;;9.83;100.00;100518.45;105838;1254;71704;-51
2023/04/10 06:26:46;;;;;;;25.20;16.70;;;;;;;9.81;100.00;100519.59;107144;1255;62079;-52
2023/04/10 06:29:15;;;;;;;28.50;16.40;;;;;;;9.79;100.00;100519.11;105568;1256;61512;-50
2023/04/10 06:31:44;;;;;;;22.20;16.00;;;;;;;9.76;100.00;100517.08;105437;1254;73248;-52
2023/04/10 06:34:12;;;;;;;22.00;15.50;;;;;;;9.74;100.00;100515.70;109177;1254;66480;-53
2023/04/10 06:36:49;;;;;;;26.50;17.70;;;;;;;9.73;100.00;100518.60;109070;1253;72560;-53
2023/04/10 06:39:18;;;;;;;20.80;14.30;;;;;;;9.73;100.00;100515.20;109037;1254;60978;-52
2023/04/10 06:41:46;;;;;;;24.00;14.80;;;;;;;9.73;100.00;100512.14;109068;1254;58556;-52
2023/04/10 06:44:24;;;;;;;19.90;15.00;;;;;;;9.75;100.00;100517.13;108991;1254;74511;-53
2023/04/10 06:46:51;;;;;;;19.50;14.40;;;;;;;9.76;100.00;100518.33;109081;1253;66090;-53
2023/04/10 06:49:19;;;;;;;19.80;15.30;;;;;;;9.78;100.00;100517.20;109028;1254;74653;-52
2023/04/10 06:51:47;;;;;;;20.20;14.80;;;;;;;9.79;100.00;100520.54;108999;1256;60138;-53
2023/04/10 06:54:15;;;;;;;29.30;15.90;;;;;;;9.79;100.00;100521.25;109077;1254;59151;-52
2023/04/10 06:56:43;;;;;;;22.30;17.10;;;;;;;9.81;100.00;100522.09;109045;1254;73792;-52
2023/04/10 06:59:13;;;;;;;22.50;16.20;;;;;;;9.84;100.00;100522.56;109062;1254;66014;-52
2023/04/10 07:01:41;;;;;;;25.10;14.70;;;;;;;9.86;100.00;100529.67;108955;1254;72870;-53
2023/04/10 07:04:08;;;;;;;24.80;16.60;;;;;;;9.86;100.00;100527.68;109078;1254;61092;-52
2023/04/10 07:06:38;;;;;;;24.40;16.80;;;;;;;9.86;100.00;100528.92;109090;1255;61179;-53
2023/04/10 07:09:06;;;;;;;22.20;16.60;;;;;;;9.84;100.00;100530.08;109055;1254;73231;-53
2023/04/10 07:11:35;;;;;;;22.90;16.40;;;;;;;9.84;100.00;100530.95;109114;1254;66398;-53
2023/04/10 07:14:02;;;;;;;26.20;18.30;;;;;;;9.87;100.00;100533.20;109113;1254;73444;-53
2023/04/10 07:16:31;;;;;;;23.20;16.20;;;;;;;9.88;100.00;100532.25;109066;1254;61032;-53
2023/04/10 07:19:00;;;;;;;25.30;16.70;;;;;;;9.89;100.00;100533.49;109089;1254;59245;-53
2023/04/10 07:21:28;;;;;;;22.50;17.00;;;;;;;9.87;100.00;100536.92;109094;1254;73323;-53
2023/04/10 07:24:00;;;;;;;24.80;16.60;;;;;;;9.87;100.00;100539.27;106089;1260;68583;-52
2023/04/10 07:26:28;;;;;;;20.50;14.40;;;;;;;9.88;100.00;100540.14;105350;1259;71849;-50
2023/04/10 07:28:57;;;;;;;19.00;14.90;;;;;;;9.88;100.00;100545.16;105370;1257;62169;-52
2023/04/10 07:31:25;;;;;;;25.00;14.80;;;;;;;9.87;100.00;100542.31;106446;1257;61056;-50
2023/04/10 07:33:53;;;;;;;18.90;14.20;;;;;;;9.88;100.00;100547.67;105352;1258;74909;-50
2023/04/10 07:36:21;;;;;;;18.90;12.30;;;;;;;9.88;100.00;100547.86;105620;1258;67223;-52
2023/04/10 07:38:49;;;;;;;19.40;14.60;;;;;;;9.88;100.00;100550.73;105675;1254;72619;-52
2023/04/10 07:41:17;;;;;;;22.50;14.90;;;;;;;9.88;100.00;100554.12;104990;1254;60543;-53
2023/04/10 07:43:50;;;;;;;22.60;13.80;;;;;;;9.89;100.00;100555.35;105226;1257;60730;-51
2023/04/10 07:46:18;;;;;;;19.30;14.10;;;;;;;9.90;100.00;100558.02;105393;1256;73787;-52
2023/04/10 07:48:46;;;;;;;21.20;14.30;;;;;;;9.89;100.00;100559.30;107298;1253;66037;-54
2023/04/10 07:51:16;;;;;;;19.20;13.40;;;;;;;9.88;100.00;100556.81;108844;1254;72787;-53
2023/04/10 07:53:45;;;;;;;18.90;13.30;;;;;;;9.88;100.00;100562.73;107565;1254;61926;-53
2023/04/10 07:56:16;;;;;;;14.00;10.10;;;;;;;9.89;100.00;100561.81;106785;1254;60449;-53
2023/04/10 07:58:47;;;;;;;13.80;9.70;;;;;;;9.92;100.00;100562.62;107073;1254;74516;-53
2023/04/10 08:01:15;;;;;;;12.60;9.20;;;;;;;9.95;100.00;100560.73;104961;1254;67517;-53
2023/04/10 08:03:51;;;;;;;9.40;8.20;;;;;;;9.98;100.00;100565.48;105323;1257;73613;-51
2023/04/10 08:06:20;;;;;;;10.00;8.80;;;;;;;9.99;100.00;100567.58;105504;1254;63553;-51
2023/04/10 08:08:48;;;;;;;11.50;8.80;;;;;;;10.00;100.00;100567.02;105481;1257;60306;-53
2023/04/10 08:11:26;;;;;;;10.30;8.60;;;;;;;10.00;100.00;100568.09;105408;1257;74010;-51
2023/04/10 08:13:57;;;;;;;11.30;8.10;;;;;;;10.01;100.00;100571.11;105614;1254;67427;-53
2023/04/10 08:16:25;;;;;;;11.80;10.10;;;;;;;10.00;100.00;100575.27;105454;1254;71899;-48
2023/04/10 08:18:56;;;;;;;14.50;9.70;;;;;;;10.00;100.00;100572.05;105934;1256;60902;-52
2023/04/10 08:21:25;;;;;;;14.80;9.20;;;;;;;10.00;100.00;100573.84;106006;1254;60332;-52
2023/04/10 08:23:54;;;;;;;12.70;10.10;;;;;;;10.00;100.00;100576.53;105533;1253;75011;-50
2023/04/10 08:26:22;;;;;;;11.10;8.90;;;;;;;10.00;100.00;100577.79;105615;1256;65280;-53
2023/04/10 08:28:51;;;;;;;16.90;10.00;;;;;;;10.01;100.00;100578.29;105670;1255;72359;-53
2023/04/10 08:31:20;;;;;;;17.50;9.10;;;;;;;10.03;100.00;100577.31;106844;1256;63244;-53
2023/04/10 08:33:48;;;;;;;10.70;9.30;;;;;;;10.06;100.00;100576.13;105587;1254;61287;-53
2023/04/10 08:36:18;;;;;;;13.20;8.60;;;;;;;10.08;100.00;100576.24;105593;1258;73890;-53
2023/04/10 08:38:48;;;;;;;11.70;9.90;;;;;;;10.10;100.00;100576.20;105692;1254;67070;-51
2023/04/10 08:41:19;;;;;;;12.60;10.40;;;;;;;10.14;100.00;100577.66;105631;1256;73930;-53
2023/04/10 08:43:48;;;;;;;17.30;10.80;;;;;;;10.19;100.00;100579.67;105857;1264;62679;-53
2023/04/10 08:46:16;;;;;;;12.20;9.30;;;;;;;10.25;100.00;100582.52;106074;1254;60408;-52
2023/04/10 08:48:58;;;;;;;13.30;9.50;;;;;;;10.30;100.00;100587.02;107401;1253;75408;-52
2023/04/10 08:51:38;;;;;;;16.20;9.60;;;;;;;10.36;100.00;100586.13;105557;1256;66188;-53
2023/04/10 08:54:09;;;;;;;9.90;8.00;;;;;;;10.40;100.00;100588.27;106605;1254;70249;-52
2023/04/10 08:56:40;;;;;;;10.30;7.90;;;;;;;10.44;100.00;100587.08;105581;1257;61299;-53
2023/04/10 08:59:09;;;;;;;12.80;8.50;;;;;;;10.46;100.00;100584.47;106077;1256;60402;-53
2023/04/10 09:01:39;;;;;;;11.30;8.30;;;;;;;10.50;100.00;100588.49;105973;1257;73917;-53
2023/04/10 09:04:09;;;;;;;11.00;8.80;;;;;;;10.53;100.00;100587.31;105799;1256;65983;-52
2023/04/10 09:06:37;;;;;;;12.10;9.70;;;;;;;10.56;100.00;100589.36;105887;1254;72843;-53
2023/04/10 09:09:09;;;;;;;10.20;8.00;;;;;;;10.57;100.00;100590.73;105552;1257;62676;-52
2023/04/10 09:11:59;;;;;;;16.50;9.90;;;;;;;10.56;100.00;100593.98;107018;1254;60592;-51
2023/04/10 09:14:35;;;;;;;10.80;9.80;;;;;;;10.55;100.00;100595.11;105665;1256;74384;-52
2023/04/10 09:17:29;;;;;;;11.00;9.90;;;;;;;10.54;100.00;100593.73;106485;1256;65057;-49
2023/04/10 09:20:01;;;;;;;9.30;8.20;;;;;;;10.54;100.00;100598.94;106158;1256;72145;-54
2023/04/10 09:22:31;;;;;;;10.30;8.30;;;;;;;10.56;100.00;100598.84;105693;1256;61243;-51
2023/04/10 09:25:06;;;;;;;9.10;8.00;;;;;;;10.59;100.00;100598.92;105977;1254;60649;-53
2023/04/10 09:27:40;;;;;;;8.20;7.50;;;;;;;10.64;100.00;100600.91;105597;1254;72773;-53
2023/04/10 09:30:09;;;;;;;8.70;7.80;;;;;;;10.71;100.00;100600.50;106498;1254;66913;-52
2023/04/10 09:32:42;;;;;;;7.90;7.10;;;;;;;10.80;100.00;100597.67;109094;1253;72801;-54
2023/04/10 09:35:13;;;;;;;7.60;6.90;;;;;;;10.91;100.00;100598.69;109257;1254;60689;-53
2023/04/10 09:37:43;;;;;;;6.50;5.80;;;;;;;11.06;100.00;100601.56;109065;1253;59933;-54
2023/04/10 09:40:23;;;;;;;5.90;5.30;;;;;;;11.21;100.00;100596.33;106147;1256;74450;-52
2023/04/10 09:42:52;;;;;;;5.20;4.70;;;;;;;11.33;100.00;100604.27;109083;1254;65116;-53
2023/04/10 09:45:21;;;;;;;5.10;4.70;;;;;;;11.48;100.00;100601.39;106938;1254;71397;-51
2023/04/10 09:48:06;;;;;;;3.60;3.30;;;;;;;11.67;100.00;100601.35;107938;1253;61103;-51
2023/04/10 09:50:36;;;;;;;3.60;3.30;;;;;;;11.87;100.00;100606.01;109208;1252;60602;-53
2023/04/10 09:53:15;;;;;;;3.80;2.50;;;;;;;11.99;100.00;100604.42;109067;1253;72002;-53
2023/04/10 09:55:46;;;;;;;2.30;2.10;;;;;;;12.09;100.00;100607.08;109000;1256;65340;-53
2023/04/10 09:58:15;;;;;;;2.40;2.20;;;;;;;12.22;100.00;100606.16;107223;1254;71963;-53
2023/04/10 10:00:44;;;;;;;3.10;1.70;;;;;;;12.36;100.00;100609.52;109110;1253;60124;-52
2023/04/10 10:03:15;;;;;;;2.70;2.20;;;;;;;12.51;100.00;100613.03;109180;1254;59233;-52
2023/04/10 10:05:44;;;;;;;1.90;1.70;;;;;;;12.60;100.00;100615.70;109162;1252;75121;-52
2023/04/10 10:08:15;;;;;;;1.60;1.50;;;;;;;12.60;100.00;100618.79;107615;1252;66813;-50
2023/04/10 10:10:47;;;;;;;1.60;1.50;;;;;;;12.59;100.00;100616.11;105446;1257;72944;-49
2023/04/10 10:13:43;;;;;;;4.80;1.70;;;;;;;12.61;100.00;100615.69;105300;1252;60405;-53
2023/04/10 10:16:21;;;;;;;2.60;1.30;;;;;;;12.63;100.00;100621.54;105414;1253;60511;-53
2023/04/10 10:19:03;;;;;;;1.40;1.30;;;;;;;12.67;100.00;100621.93;109121;1252;74160;-52
2023/04/10 10:21:33;;;;;;;1.50;1.40;;;;;;;12.72;100.00;100622.59;108950;1253;66879;-51
2023/04/10 10:24:07;;;;;;;4.30;1.90;;;;;;;12.77;100.00;100628.11;106706;1253;73752;-49
2023/04/10 10:26:37;;;;;;;1.90;1.40;;;;;;;12.80;100.00;100625.28;105417;1252;62095;-51
2023/04/10 10:29:10;;;;;;;2.70;2.00;;;;;;;12.81;100.00;100624.33;106380;1253;60434;-50
2023/04/10 10:31:40;;;;;;;2.00;1.30;;;;;;;12.85;100.00;100626.32;108964;1253;72590;-53
2023/04/10 10:34:08;;;;;;;1.50;1.10;;;;;;;12.89;100.00;100623.98;106330;1254;66280;-51
2023/04/10 10:36:38;;;;;;;1.00;0.80;;;;;;;12.97;100.00;100625.82;108789;1255;71323;-53
2023/04/10 10:39:21;;;;;;;1.10;1.00;;;;;;;13.04;100.00;100631.42;105817;1256;62690;-52
2023/04/10 10:42:07;;;;;;;1.20;1.00;;;;;;;13.15;100.00;100637.98;105623;1257;61773;-52
2023/04/10 10:44:46;;;;;;;1.00;0.80;;;;;;;13.28;100.00;100645.18;105478;1253;73226;-51
2023/04/10 10:47:17;;;;;;;2.50;0.80;;;;;;;13.35;100.00;100631.52;107789;1253;67486;-52
2023/04/10 10:49:52;;;;;;;1.00;0.90;;;;;;;13.42;100.00;100635.34;105499;1254;73969;-50
2023/04/10 10:52:52;;;;;;;0.90;0.80;;;;;;;13.50;100.00;100641.79;109173;1256;60759;-52
2023/04/10 10:57:44;;;;;;;5.80;2.00;;;;;;;13.69;100.00;100676.84;102319;1291;600242;-52
2023/04/10 11:00:13;;;;;;;2.10;1.60;;;;;;;13.74;100.00;100717.51;105080;1259;59778;-51
2023/04/10 11:02:44;;;;;;;1.50;1.40;;;;;;;13.80;100.00;100701.38;108633;1259;59803;-53
2023/04/10 11:05:55;;;;;;;1.80;1.40;;;;;;;13.87;100.00;100699.25;107261;1257;73969;-53
2023/04/10 11:08:32;;;;;;;1.60;1.50;;;;;;;13.94;100.00;100702.36;104903;1260;67726;-51
2023/04/10 11:11:15;;;;;;;1.60;1.40;;;;;;;13.92;100.00;100694.34;108605;1256;136320;-53
2023/04/10 11:13:56;;;;;;;1.50;1.40;;;;;;;13.94;100.00;100698.73;107264;1256;61895;-53
2023/04/10 11:16:35;;;;;;;1.60;1.50;;;;;;;14.00;100.00;100696.27;105497;1260;60456;-51
2023/04/10 11:19:07;;;;;;;1.40;1.30;;;;;;;14.05;100.00;100688.24;106519;1257;71576;-53
2023/04/10 11:22:02;;;;;;;1.60;1.50;;;;;;;14.05;100.00;100683.78;105269;1256;67661;-53
2023/04/10 11:25:00;;;;;;;1.20;1.10;;;;;;;14.02;100.00;100692.58;108648;1256;71828;-52
2023/04/10 11:27:48;;;;;;;1.00;0.90;;;;;;;14.04;100.00;100692.99;105552;1257;60748;-51
2023/04/10 11:30:34;;;;;;;0.80;0.80;;;;;;;14.10;100.00;100690.59;105143;1258;59734;-52
2023/04/10 11:33:03;;;;;;;1.00;0.90;;;;;;;14.15;100.00;100689.95;105580;1256;72617;-52
2023/04/10 11:35:31;;;;;;;0.80;0.80;;;;;;;14.20;100.00;100688.45;105890;1257;66253;-52
2023/04/10 11:38:16;;;;;;;0.70;0.70;;;;;;;14.26;100.00;100685.29;105919;1256;71156;-53
2023/04/10 11:40:58;;;;;;;1.30;0.70;;;;;;;14.32;100.00;100690.74;105290;1260;60465;-53